Aeroporto :
LOGIN :

Iscrizione | Disclaimer

   EN    FR    IT 

 










Sommario :    VFR   VFR Marginale   IFR   IFR Intensivo   IFR Molto Intensivo
Visibilità : 
Base nubi : 
>= 8 km
>= 3000ft
5 / 8 km
1000 / 3000 ft
1500m / 5 km
500 / 1000 ft
800 / 1500m
200 / 500 ft
< 800m
< 200 ft
Simboli :   Temporali  Nebbia  Neve Forte  Precipitazioni Forti  Vento > 20 kt
SIGMETs :   Varie  Temporali  Ghiacco  Turbolenza  Onda orograficha  Ceneri Vulcaniche






- Altitudine del aeroporto : 36 ft
- Codice IATA : RIX


EVRA - Riga

ULTIMO METAR :
  • 251150Z 13007KT 100V160 9999 BKN014 OVC026 02/M01 Q0995 R18/190095 NOSIG

METARs OBSOLETI :
  • 251120Z 13008KT 9999 SCT014 BKN019 02/M01 Q0996 R18/190095 BECMG BKN014
  • 251050Z 12005KT 100V190 9999 FEW022 BKN047 02/M01 Q0997 R18/190095 NOSIG
  • 251020Z 13007KT 100V160 9999 BKN033 01/M01 Q0997 R18/190095 NOSIG
  • 250950Z 13007KT 100V160 9999 FEW020 BKN034 01/M01 Q0998 R18/190095 NOSIG
  • 250920Z 13006KT 9999 SCT021 SCT039 OVC047 01/M01 Q0998 R18/190095 NOSIG

TAF AMD TAF EVRA
Valido dal 25 a 12 ore il 26 a 12 ore UTC


251107Z 2512/2612 14007KT 9999 BKN013
BECMG 2514/2516 BKN005 OVC010
TEMPO 2515/2524 1500 RASN BKN003 OVC005
BECMG 2521/2523 20007KT
BECMG 2602/2604 BKN020



MetMap, La meteo Aeronautica in un colpo d'occhio ! - Copyright ORBIFLY Dicembre 2007 - Disclaimer

ORBIFLY MET'MAP TEAM :

Programmazione e sviluppo : Alexandra Zaïnal
Concezione : Baudouin d'Aumeries
Aiuto per la programmazione : Marc-Olivier Méhu
Supporto tecnico e logistico : Manuel Goepfert
Aiuto per la traduzione : Arnaldo La Scala

Contatto : metmap@orbifly.com




FONTI E CREDITI :

   NOAA